MSC Carolina — 3ECV5 — position and weather

sailwx.info

Track history (hours):
 
Tides and Currents Weather Stations Pressure Air Temp Water Temp Dewpoint Dewpoint Depression Visibility Wind Speed Wind Dir Waves Ship Positions

MSC Carolina

Last reported at 2016-May-05 20:30 UTC. Time now 2016-May-06 09:18 UTC.
Position N 48°33' W 006°07'.

Length 275 m; draft 10.6 m.

Type: Ship (hazmat cat B). MMSI: 371475000.

Date/timePositionNaut miles runAvg speedWind from/ knotsBaromVisibWave heightAir tempDewpointWater temp
2016-May-05 20:30N 48°33' W 006°07'1818.9
2016-May-05 19:34N 48°49' W 005°52'1716.6
2016-May-05 18:33N 48°58' W 005°32'1615.6
2016-May-05 17:34N 49°06' W 005°11'1514.7
2016-May-05 16:34N 49°13' W 004°51'1413.9
2016-May-05 15:34N 49°20' W 004°33'1413.9
2016-May-05 14:33N 49°28' W 004°15'1515.0
2016-May-05 13:33N 49°36' W 003°56'1716.6
2016-May-05 12:33N 49°44' W 003°34'1818.2
2016-May-05 11:33N 49°53' W 003°10'2019.6
2016-May-05 10:33N 50°01' W 002°42'2019.9
2016-May-05 09:33N 50°03' W 002°11'1818.2
2016-May-05 08:33N 50°04' W 001°42'1616.4
2016-May-05 07:33N 49°60' W 001°18'1615.7
2016-May-05 06:33N 49°51' W 000°58'1515.1
2016-May-05 05:33N 49°43' W 000°38'1515.2
2016-May-05 04:33N 49°34' W 000°19'1615.8
2016-May-05 03:33N 49°29' E 000°05'3 3.0
2016-May-05 02:33N 49°28' E 000°09'0 0.0
2016-May-05 01:33N 49°28' E 000°09'0 0.0
2016-May-05 00:33N 49°28' E 000°09'0 0.0
2016-May-04 23:33N 49°28' E 000°09'0 0.0
2016-May-04 22:33N 49°28' E 000°09'0 0.0
2016-May-04 21:33N 49°28' E 000°09'0 0.0
2016-May-04 20:33N 49°28' E 000°09'0 0.0
2016-May-04 19:33N 49°28' E 000°09'0 0.0
2016-May-04 18:33N 49°28' E 000°09'3 3.5
2016-May-04 17:34N 49°29' E 000°04'1110.9
2016-May-04 16:33N 49°33' W 000°12'1515.0
2016-May-04 15:33N 49°44' W 000°28'1312.9
2016-May-04 14:33N 49°55' W 000°19'1413.9
2016-May-04 13:34N 50°07' W 000°09'1413.8
2016-May-04 12:33N 50°21' W 000°06'1212.3
2016-May-04 11:34N 50°30' E 000°06'1515.0
2016-May-04 10:33N 50°34' E 000°29'2914.6
2016-May-04 08:33N 50°51' E 001°07'1313.4
2016-May-04 07:33N 50°59' E 001°24'1212.5
2016-May-04 06:33N 51°08' E 001°38'1313.3
2016-May-04 05:33N 51°18' E 001°51'1211.5
2016-May-04 04:33N 51°22' E 002°09'1312.7
2016-May-04 03:33N 51°23' E 002°29'1414.2
2016-May-04 02:33N 51°25' E 002°51'2020.1
2016-May-04 01:33N 51°25' E 003°24'1212.1
2016-May-04 00:33N 51°23' E 003°43'1211.8
2016-May-03 23:33N 51°26' E 004°01'1110.5
2016-May-03 22:33N 51°21' E 004°16'1 0.6
2016-May-03 21:33N 51°21' E 004°17'2 1.7
2016-May-03 20:33N 51°19' E 004°19'1 0.7
2016-May-03 19:31N 51°20' E 004°20'0 0.0
2016-May-03 18:31N 51°20' E 004°20'0 0.0
2016-May-03 17:31N 51°20' E 004°20'0 0.0
2016-May-03 16:31N 51°20' E 004°20'0 0.0
2016-May-03 15:31N 51°20' E 004°20'0 0.0
2016-May-03 14:28N 51°20' E 004°20'0 0.0
2016-May-03 13:28N 51°20' E 004°20'0 0.0
2016-May-03 12:31N 51°20' E 004°20'0 0.0
2016-May-03 11:22N 51°20' E 004°20'0 0.0
2016-May-03 10:31N 51°20' E 004°20'0 0.0
2016-May-03 09:28N 51°20' E 004°20'0 0.0
2016-May-03 08:28N 51°20' E 004°20'0 0.0
2016-May-03 07:31N 51°20' E 004°20'0 0.0
2016-May-03 06:31N 51°20' E 004°20'0 0.0
2016-May-03 05:31N 51°20' E 004°20'0 0.0
2016-May-03 04:28N 51°20' E 004°20'0 0.0
2016-May-03 03:31N 51°20' E 004°20'0 0.0
2016-May-03 02:31N 51°20' E 004°20'0 0.0
2016-May-03 01:31N 51°20' E 004°20'0 0.0
2016-May-03 00:28N 51°20' E 004°20'0 0.0
2016-May-02 23:34N 51°20' E 004°20'0 0.0
2016-May-02 22:33N 51°20' E 004°20'0 0.0
2016-May-02 21:30N 51°20' E 004°20'0 0.0
2016-May-02 20:33N 51°20' E 004°20'0 0.0
2016-May-02 19:33N 51°20' E 004°20'0 0.0
2016-May-02 18:33N 51°20' E 004°20'0 0.0
2016-May-02 17:33N 51°20' E 004°20'0 0.0
2016-May-02 16:33N 51°20' E 004°20'0 0.0
2016-May-02 15:33N 51°20' E 004°20'0 0.0
2016-May-02 14:33N 51°20' E 004°20'0 0.0
2016-May-02 13:33N 51°20' E 004°20'0 0.0
2016-May-02 12:33N 51°20' E 004°20'0 0.0
2016-May-02 11:33N 51°20' E 004°20'0 0.0
2016-May-02 10:33N 51°20' E 004°20'0 0.0
2016-May-02 09:33N 51°20' E 004°20'0 0.0
2016-May-02 08:33N 51°20' E 004°20'0 0.0
2016-May-02 07:33N 51°20' E 004°20'0 0.0
2016-May-02 06:33N 51°20' E 004°20'0 0.0
2016-May-02 05:33N 51°20' E 004°20'0 0.0
2016-May-02 04:33N 51°20' E 004°20'0 0.0
2016-May-02 03:33N 51°20' E 004°20'0 0.0
2016-May-02 02:33N 51°20' E 004°20'0 0.0
2016-May-02 01:33N 51°20' E 004°20'0 0.0
2016-May-02 00:33N 51°20' E 004°20'0 0.0
2016-May-01 23:33N 51°20' E 004°20'0 0.0
2016-May-01 22:33N 51°20' E 004°20'0 0.0
2016-May-01 21:30N 51°20' E 004°20'0 0.0
2016-May-01 20:33N 51°20' E 004°20'0 0.0
2016-May-01 19:33N 51°20' E 004°20'1 1.1
2016-May-01 18:34N 51°19' E 004°19'2 1.5
2016-May-01 17:34N 51°21' E 004°17'0 0.2
2016-May-01 16:34N 51°21' E 004°17'5 5.1
2016-May-01 15:33N 51°23' E 004°10'9 8.7
2016-May-01 14:33N 51°22' E 003°56'1211.6
2016-May-01 13:33N 51°26' E 003°38'1212.1
2016-May-01 12:33N 51°24' E 003°19'1414.1
2016-May-01 11:33N 51°25' E 002°56'1211.5
2016-May-01 10:33N 51°22' E 002°38'1310.8
2016-May-01 09:22N 51°19' E 002°18'1012.0
2016-May-01 08:33N 51°21' E 002°03'1110.8
2016-May-01 07:33N 51°30' E 001°52'8 8.0
2016-May-01 06:33N 51°30' E 001°39'8 7.9
2016-May-01 05:33N 51°28' E 001°27'1313.5
2016-May-01 04:34N 51°30' E 001°05'1616.1
2016-May-01 03:34N 51°30' E 000°40'6 5.9
2016-May-01 02:34N 51°30' E 000°30'0 0.0
2016-May-01 01:34N 51°30' E 000°30'0 0.0
2016-May-01 00:33N 51°30' E 000°30'0 0.0
2016-Apr-30 23:33N 51°30' E 000°30'0 0.0
2016-Apr-30 22:34N 51°30' E 000°30'0 0.0
2016-Apr-30 21:34N 51°30' E 000°30'0 0.0
2016-Apr-30 20:34N 51°30' E 000°30'0 0.0
2016-Apr-30 19:33N 51°30' E 000°30'0 0.0
2016-Apr-30 18:34N 51°30' E 000°30'0 0.0
2016-Apr-30 17:34N 51°30' E 000°30'0 0.0
2016-Apr-30 16:34N 51°30' E 000°30'0 0.0
2016-Apr-30 15:33N 51°30' E 000°30'3 3.4
2016-Apr-30 14:34N 51°30' E 000°36'10 9.8
2016-Apr-30 13:33N 51°29' E 000°51'1515.1
2016-Apr-30 12:33N 51°34' E 001°14'1717.3
2016-Apr-30 11:33N 51°47' E 001°33'8 8.1
2016-Apr-30 10:33N 51°51' E 001°45'8 7.5
2016-Apr-30 09:33N 51°44' E 001°48'9 8.9
2016-Apr-30 08:33N 51°35' E 001°52'1111.4
2016-Apr-30 07:34N 51°26' E 002°02'1111.0
2016-Apr-30 06:33N 51°16' E 001°53'1313.0
2016-Apr-30 05:33N 51°06' E 001°40'1313.2
2016-Apr-30 04:34N 50°56' E 001°27'5112.8
2016-Apr-30 00:33N 50°23' E 000°25'1414.3
2016-Apr-29 23:33N 50°19' E 000°03'1414.0
2016-Apr-29 22:34N 50°17' W 000°18'9813.9
2016-Apr-29 15:33N 49°51' W 002°45'1515.1
2016-Apr-29 14:33N 49°45' W 003°06'9315.2
2016-Apr-29 08:26N 48°59' W 005°09'1415.1
2016-Apr-29 07:29N 48°51' W 005°28'61215.6
2016-Apr-27 16:19N 39°09' W 009°52'1317.0
2016-Apr-27 15:33N 38°57' W 009°51'1717.0
2016-Apr-27 14:33N 38°40' W 009°50'1716.8
2016-Apr-27 13:32N 38°23' W 009°45'1716.9
2016-Apr-27 12:33N 38°07' W 009°40'1716.8
2016-Apr-27 11:33N 37°51' W 009°35'1716.8
2016-Apr-27 10:34N 37°34' W 009°32'2016.9
2016-Apr-27 09:24N 37°15' W 009°26'1416.7
2016-Apr-27 08:33N 37°01' W 009°22'1616.2
2016-Apr-27 07:33N 36°47' W 009°12'1716.3
2016-Apr-27 06:32N 36°41' W 008°53'1717.3
2016-Apr-27 05:33N 36°35' W 008°33'1817.6
2016-Apr-27 04:31N 36°30' W 008°11'1717.9
2016-Apr-27 03:33N 36°25' W 007°51'1817.9
2016-Apr-27 02:33N 36°19' W 007°30'10116.8
2016-Apr-26 20:33N 36°00' W 005°27'15917.6
2016-Apr-26 11:32N 36°26' W 002°13'6616.4
2016-Apr-26 07:31N 37°08' W 001°10'1616.9
2016-Apr-26 06:33N 37°19' W 000°54'1716.9
2016-Apr-26 05:33N 37°30' W 000°39'1817.8
2016-Apr-26 04:33N 37°44' W 000°25'1817.9
2016-Apr-26 03:34N 37°59' W 000°12'2318.0
2016-Apr-26 02:16N 38°19' E 000°03'1318.2
2016-Apr-26 01:33N 38°30' E 000°12'6115.3
2016-Apr-25 21:33N 39°26' W 000°18'0 0.5
2016-Apr-25 20:33N 39°26' W 000°19'  
Track history (hours):
 
Tides and Currents Weather Stations Pressure Air Temp Water Temp Dewpoint Dewpoint Depression Visibility Wind Speed Wind Dir Waves Ship Positions

MSC Carolina

Last reported at 2016-May-05 20:30 UTC. Time now 2016-May-06 09:18 UTC.
Position N 48°33' W 006°07'.

Length 275 m; draft 10.6 m.

Type: Ship (hazmat cat B). MMSI: 371475000.

Date/timePositionNaut miles runAvg speedWind from/ knotsBaromVisibWave heightAir tempDewpointWater temp
2016-May-05 20:30N 48°33' W 006°07'1818.9
2016-May-05 19:34N 48°49' W 005°52'1716.6
2016-May-05 18:33N 48°58' W 005°32'1615.6
2016-May-05 17:34N 49°06' W 005°11'1514.7
2016-May-05 16:34N 49°13' W 004°51'1413.9
2016-May-05 15:34N 49°20' W 004°33'1413.9
2016-May-05 14:33N 49°28' W 004°15'1515.0
2016-May-05 13:33N 49°36' W 003°56'1716.6
2016-May-05 12:33N 49°44' W 003°34'1818.2
2016-May-05 11:33N 49°53' W 003°10'2019.6
2016-May-05 10:33N 50°01' W 002°42'2019.9
2016-May-05 09:33N 50°03' W 002°11'1818.2
2016-May-05 08:33N 50°04' W 001°42'1616.4
2016-May-05 07:33N 49°60' W 001°18'1615.7
2016-May-05 06:33N 49°51' W 000°58'1515.1
2016-May-05 05:33N 49°43' W 000°38'1515.2
2016-May-05 04:33N 49°34' W 000°19'1615.8
2016-May-05 03:33N 49°29' E 000°05'3 3.0
2016-May-05 02:33N 49°28' E 000°09'0 0.0
2016-May-05 01:33N 49°28' E 000°09'0 0.0
2016-May-05 00:33N 49°28' E 000°09'0 0.0
2016-May-04 23:33N 49°28' E 000°09'0 0.0
2016-May-04 22:33N 49°28' E 000°09'0 0.0
2016-May-04 21:33N 49°28' E 000°09'0 0.0
2016-May-04 20:33N 49°28' E 000°09'0 0.0
2016-May-04 19:33N 49°28' E 000°09'0 0.0
2016-May-04 18:33N 49°28' E 000°09'3 3.5
2016-May-04 17:34N 49°29' E 000°04'1110.9
2016-May-04 16:33N 49°33' W 000°12'1515.0
2016-May-04 15:33N 49°44' W 000°28'1312.9
2016-May-04 14:33N 49°55' W 000°19'1413.9
2016-May-04 13:34N 50°07' W 000°09'1413.8
2016-May-04 12:33N 50°21' W 000°06'1212.3
2016-May-04 11:34N 50°30' E 000°06'1515.0
2016-May-04 10:33N 50°34' E 000°29'2914.6
2016-May-04 08:33N 50°51' E 001°07'1313.4
2016-May-04 07:33N 50°59' E 001°24'1212.5
2016-May-04 06:33N 51°08' E 001°38'1313.3
2016-May-04 05:33N 51°18' E 001°51'1211.5
2016-May-04 04:33N 51°22' E 002°09'1312.7
2016-May-04 03:33N 51°23' E 002°29'1414.2
2016-May-04 02:33N 51°25' E 002°51'2020.1
2016-May-04 01:33N 51°25' E 003°24'1212.1
2016-May-04 00:33N 51°23' E 003°43'1211.8
2016-May-03 23:33N 51°26' E 004°01'1110.5
2016-May-03 22:33N 51°21' E 004°16'1 0.6
2016-May-03 21:33N 51°21' E 004°17'2 1.7
2016-May-03 20:33N 51°19' E 004°19'1 0.7
2016-May-03 19:31N 51°20' E 004°20'0 0.0
2016-May-03 18:31N 51°20' E 004°20'0 0.0
2016-May-03 17:31N 51°20' E 004°20'0 0.0
2016-May-03 16:31N 51°20' E 004°20'0 0.0
2016-May-03 15:31N 51°20' E 004°20'0 0.0
2016-May-03 14:28N 51°20' E 004°20'0 0.0
2016-May-03 13:28N 51°20' E 004°20'0 0.0
2016-May-03 12:31N 51°20' E 004°20'0 0.0
2016-May-03 11:22N 51°20' E 004°20'0 0.0
2016-May-03 10:31N 51°20' E 004°20'0 0.0
2016-May-03 09:28N 51°20' E 004°20'0 0.0
2016-May-03 08:28N 51°20' E 004°20'0 0.0
2016-May-03 07:31N 51°20' E 004°20'0 0.0
2016-May-03 06:31N 51°20' E 004°20'0 0.0
2016-May-03 05:31N 51°20' E 004°20'0 0.0
2016-May-03 04:28N 51°20' E 004°20'0 0.0
2016-May-03 03:31N 51°20' E 004°20'0 0.0
2016-May-03 02:31N 51°20' E 004°20'0 0.0
2016-May-03 01:31N 51°20' E 004°20'0 0.0
2016-May-03 00:28N 51°20' E 004°20'0 0.0
2016-May-02 23:34N 51°20' E 004°20'0 0.0
2016-May-02 22:33N 51°20' E 004°20'0 0.0
2016-May-02 21:30N 51°20' E 004°20'0 0.0
2016-May-02 20:33N 51°20' E 004°20'0 0.0
2016-May-02 19:33N 51°20' E 004°20'0 0.0
2016-May-02 18:33N 51°20' E 004°20'0 0.0
2016-May-02 17:33N 51°20' E 004°20'0 0.0
2016-May-02 16:33N 51°20' E 004°20'0 0.0
2016-May-02 15:33N 51°20' E 004°20'0 0.0
2016-May-02 14:33N 51°20' E 004°20'0 0.0
2016-May-02 13:33N 51°20' E 004°20'0 0.0
2016-May-02 12:33N 51°20' E 004°20'0 0.0
2016-May-02 11:33N 51°20' E 004°20'0 0.0
2016-May-02 10:33N 51°20' E 004°20'0 0.0
2016-May-02 09:33N 51°20' E 004°20'0 0.0
2016-May-02 08:33N 51°20' E 004°20'0 0.0
2016-May-02 07:33N 51°20' E 004°20'0 0.0
2016-May-02 06:33N 51°20' E 004°20'0 0.0
2016-May-02 05:33N 51°20' E 004°20'0 0.0
2016-May-02 04:33N 51°20' E 004°20'0 0.0
2016-May-02 03:33N 51°20' E 004°20'0 0.0
2016-May-02 02:33N 51°20' E 004°20'0 0.0
2016-May-02 01:33N 51°20' E 004°20'0 0.0
2016-May-02 00:33N 51°20' E 004°20'0 0.0
2016-May-01 23:33N 51°20' E 004°20'0 0.0
2016-May-01 22:33N 51°20' E 004°20'0 0.0
2016-May-01 21:30N 51°20' E 004°20'0 0.0
2016-May-01 20:33N 51°20' E 004°20'0 0.0
2016-May-01 19:33N 51°20' E 004°20'1 1.1
2016-May-01 18:34N 51°19' E 004°19'2 1.5
2016-May-01 17:34N 51°21' E 004°17'0 0.2
2016-May-01 16:34N 51°21' E 004°17'5 5.1
2016-May-01 15:33N 51°23' E 004°10'9 8.7
2016-May-01 14:33N 51°22' E 003°56'1211.6
2016-May-01 13:33N 51°26' E 003°38'1212.1
2016-May-01 12:33N 51°24' E 003°19'1414.1
2016-May-01 11:33N 51°25' E 002°56'1211.5
2016-May-01 10:33N 51°22' E 002°38'1310.8
2016-May-01 09:22N 51°19' E 002°18'1012.0
2016-May-01 08:33N 51°21' E 002°03'1110.8
2016-May-01 07:33N 51°30' E 001°52'8 8.0
2016-May-01 06:33N 51°30' E 001°39'8 7.9
2016-May-01 05:33N 51°28' E 001°27'1313.5
2016-May-01 04:34N 51°30' E 001°05'1616.1
2016-May-01 03:34N 51°30' E 000°40'6 5.9
2016-May-01 02:34N 51°30' E 000°30'0 0.0
2016-May-01 01:34N 51°30' E 000°30'0 0.0
2016-May-01 00:33N 51°30' E 000°30'0 0.0
2016-Apr-30 23:33N 51°30' E 000°30'0 0.0
2016-Apr-30 22:34N 51°30' E 000°30'0 0.0
2016-Apr-30 21:34N 51°30' E 000°30'0 0.0
2016-Apr-30 20:34N 51°30' E 000°30'0 0.0
2016-Apr-30 19:33N 51°30' E 000°30'0 0.0
2016-Apr-30 18:34N 51°30' E 000°30'0 0.0
2016-Apr-30 17:34N 51°30' E 000°30'0 0.0
2016-Apr-30 16:34N 51°30' E 000°30'0 0.0
2016-Apr-30 15:33N 51°30' E 000°30'3 3.4
2016-Apr-30 14:34N 51°30' E 000°36'10 9.8
2016-Apr-30 13:33N 51°29' E 000°51'1515.1
2016-Apr-30 12:33N 51°34' E 001°14'1717.3
2016-Apr-30 11:33N 51°47' E 001°33'8 8.1
2016-Apr-30 10:33N 51°51' E 001°45'8 7.5
2016-Apr-30 09:33N 51°44' E 001°48'9 8.9
2016-Apr-30 08:33N 51°35' E 001°52'1111.4
2016-Apr-30 07:34N 51°26' E 002°02'1111.0
2016-Apr-30 06:33N 51°16' E 001°53'1313.0
2016-Apr-30 05:33N 51°06' E 001°40'1313.2
2016-Apr-30 04:34N 50°56' E 001°27'5112.8
2016-Apr-30 00:33N 50°23' E 000°25'1414.3
2016-Apr-29 23:33N 50°19' E 000°03'1414.0
2016-Apr-29 22:34N 50°17' W 000°18'9813.9
2016-Apr-29 15:33N 49°51' W 002°45'1515.1
2016-Apr-29 14:33N 49°45' W 003°06'9315.2
2016-Apr-29 08:26N 48°59' W 005°09'1415.1
2016-Apr-29 07:29N 48°51' W 005°28'61215.6
2016-Apr-27 16:19N 39°09' W 009°52'1317.0
2016-Apr-27 15:33N 38°57' W 009°51'1717.0
2016-Apr-27 14:33N 38°40' W 009°50'1716.8
2016-Apr-27 13:32N 38°23' W 009°45'1716.9
2016-Apr-27 12:33N 38°07' W 009°40'1716.8
2016-Apr-27 11:33N 37°51' W 009°35'1716.8
2016-Apr-27 10:34N 37°34' W 009°32'2016.9
2016-Apr-27 09:24N 37°15' W 009°26'1416.7
2016-Apr-27 08:33N 37°01' W 009°22'1616.2
2016-Apr-27 07:33N 36°47' W 009°12'1716.3
2016-Apr-27 06:32N 36°41' W 008°53'1717.3
2016-Apr-27 05:33N 36°35' W 008°33'1817.6
2016-Apr-27 04:31N 36°30' W 008°11'1717.9
2016-Apr-27 03:33N 36°25' W 007°51'1817.9
2016-Apr-27 02:33N 36°19' W 007°30'10116.8
2016-Apr-26 20:33N 36°00' W 005°27'15917.6
2016-Apr-26 11:32N 36°26' W 002°13'6616.4
2016-Apr-26 07:31N 37°08' W 001°10'1616.9
2016-Apr-26 06:33N 37°19' W 000°54'1716.9
2016-Apr-26 05:33N 37°30' W 000°39'1817.8
2016-Apr-26 04:33N 37°44' W 000°25'1817.9
2016-Apr-26 03:34N 37°59' W 000°12'2318.0
2016-Apr-26 02:16N 38°19' E 000°03'1318.2
2016-Apr-26 01:33N 38°30' E 000°12'6115.3
2016-Apr-25 21:33N 39°26' W 000°18'0 0.5
2016-Apr-25 20:33N 39°26' W 000°19'  

Dump ship's entire track history